Weather Data

Pearl Creek Farm: 8878 N Farm Road 75, Walnut Grove MO 65770

<== Previous Day (Friday 17 Jan 2014) | Next Day (Sunday 19 Jan 2014) ==>

Summary Precipitation Data For Saturday 18 January 2014

ElementValueUnits
Precipitation0"
Notes(none)
SourcePearl Creek Farm

Summary Temperature Data For Saturday 18 January 2014

ElementValueUnits
High Temperature51 oF
Low Temperature19 oF
Average Temperature38 oF
High Humidity76 %
Low Humidity44 %
Average Humidity57 %
SourcePearl Creek Farm

Detail Temperature Data For Saturday 18 January 2014

Date / TimeTemp (F)RH (%)Dew Pt (F)Report Date / TimeSource
2014-01-18 00:00:00 19 76 12.7 2014-02-09 14:43:36 Pearl Creek Farm
2014-01-18 00:30:00 19 75 12.3 2014-02-09 14:43:36 Pearl Creek Farm
2014-01-18 01:00:00 20 74 13.1 2014-02-09 14:43:36 Pearl Creek Farm
2014-01-18 01:30:00 21 74 14.0 2014-02-09 14:43:36 Pearl Creek Farm
2014-01-18 02:00:00 24 72 16.2 2014-02-09 14:43:36 Pearl Creek Farm
2014-01-18 02:30:00 28 66 18.1 2014-02-09 14:43:36 Pearl Creek Farm
2014-01-18 03:00:00 29 65 18.7 2014-02-09 14:43:36 Pearl Creek Farm
2014-01-18 03:30:00 29 65 18.6 2014-02-09 14:43:36 Pearl Creek Farm
2014-01-18 04:00:00 30 65 19.5 2014-02-09 14:43:36 Pearl Creek Farm
2014-01-18 04:30:00 30 63 19.0 2014-02-09 14:43:36 Pearl Creek Farm
2014-01-18 05:00:00 30 61 18.2 2014-02-09 14:43:36 Pearl Creek Farm
2014-01-18 05:30:00 30 61 18.2 2014-02-09 14:43:36 Pearl Creek Farm
2014-01-18 06:00:00 31 62 19.5 2014-02-09 14:43:36 Pearl Creek Farm
2014-01-18 06:30:00 32 62 20.3 2014-02-09 14:43:36 Pearl Creek Farm
2014-01-18 07:00:00 36 58 22.5 2014-02-09 14:43:36 Pearl Creek Farm
2014-01-18 07:30:00 37 55 22.4 2014-02-09 14:43:36 Pearl Creek Farm
2014-01-18 08:00:00 38 54 22.7 2014-02-09 14:43:36 Pearl Creek Farm
2014-01-18 08:30:00 39 53 23.1 2014-02-09 14:43:36 Pearl Creek Farm
2014-01-18 09:00:00 40 52 23.6 2014-02-09 14:43:36 Pearl Creek Farm
2014-01-18 09:30:00 42 50 24.8 2014-02-09 14:43:36 Pearl Creek Farm
2014-01-18 10:00:00 43 49 24.9 2014-02-09 14:43:36 Pearl Creek Farm
2014-01-18 10:30:00 45 48 26.5 2014-02-09 14:43:36 Pearl Creek Farm
2014-01-18 11:00:00 46 49 27.7 2014-02-09 14:43:36 Pearl Creek Farm
2014-01-18 11:30:00 47 49 28.6 2014-02-09 14:43:36 Pearl Creek Farm
2014-01-18 12:00:00 48 48 29.3 2014-02-09 14:43:36 Pearl Creek Farm
2014-01-18 12:30:00 48 49 29.5 2014-02-09 14:43:36 Pearl Creek Farm
2014-01-18 13:00:00 50 49 31.4 2014-02-09 14:43:36 Pearl Creek Farm
2014-01-18 13:30:00 51 47 31.3 2014-02-09 14:43:36 Pearl Creek Farm
2014-01-18 14:00:00 51 47 31.5 2014-02-09 14:43:36 Pearl Creek Farm
2014-01-18 14:30:00 51 44 29.6 2014-02-09 14:43:36 Pearl Creek Farm
2014-01-18 15:00:00 50 44 28.7 2014-02-09 14:43:36 Pearl Creek Farm
2014-01-18 15:30:00 49 46 29.2 2014-02-09 14:43:36 Pearl Creek Farm
2014-01-18 16:00:00 48 47 28.8 2014-02-09 14:43:36 Pearl Creek Farm
2014-01-18 16:30:00 47 48 28.4 2014-02-09 14:43:36 Pearl Creek Farm
2014-01-18 17:00:00 47 50 29.1 2014-02-09 14:43:36 Pearl Creek Farm
2014-01-18 17:30:00 47 48 28.4 2014-02-09 14:43:36 Pearl Creek Farm
2014-01-18 18:00:00 46 49 28.0 2014-02-09 14:43:36 Pearl Creek Farm
2014-01-18 18:30:00 45 50 27.5 2014-02-09 14:43:36 Pearl Creek Farm
2014-01-18 19:00:00 45 51 28.0 2014-02-09 14:43:36 Pearl Creek Farm
2014-01-18 19:30:00 44 53 27.8 2014-02-09 14:43:36 Pearl Creek Farm
2014-01-18 20:00:00 42 54 26.6 2014-02-09 14:43:36 Pearl Creek Farm
2014-01-18 20:30:00 39 57 24.9 2014-02-09 14:43:36 Pearl Creek Farm
2014-01-18 21:00:00 37 58 23.6 2014-02-09 14:43:36 Pearl Creek Farm
2014-01-18 21:30:00 34 60 21.6 2014-02-09 14:43:36 Pearl Creek Farm
2014-01-18 22:00:00 33 63 21.6 2014-02-09 14:43:36 Pearl Creek Farm
2014-01-18 22:30:00 32 65 21.6 2014-02-09 14:43:36 Pearl Creek Farm
2014-01-18 23:00:00 30 66 19.9 2014-02-09 14:43:36 Pearl Creek Farm
2014-01-18 23:30:00 29 67 19.5 2014-02-09 14:43:36 Pearl Creek Farm

A total of 48 rows are displayed.